createdAt,value
2022-11-02T00:04:54.006Z,19.42
2022-11-02T00:09:56.834Z,17.90
2022-11-02T00:14:59.671Z,17.01
2022-11-02T00:20:04.238Z,16.45
2022-11-02T00:25:08.883Z,16.00
2022-11-02T00:30:11.963Z,15.65
2022-11-02T00:35:16.550Z,16.52
2022-11-02T00:40:19.483Z,19.33
2022-11-02T00:45:23.042Z,19.14
2022-11-02T00:50:26.062Z,17.71
2022-11-02T00:55:29.105Z,16.92
2022-11-02T01:00:36.281Z,16.36
2022-11-02T01:05:39.422Z,15.94
2022-11-02T01:10:45.550Z,15.58
2022-11-02T01:15:52.553Z,16.51
2022-11-02T01:20:59.048Z,19.26
2022-11-02T01:26:07.194Z,19.33
2022-11-02T01:31:11.374Z,17.83
2022-11-02T01:36:17.081Z,16.96
2022-11-02T01:41:20.059Z,16.35
2022-11-02T01:46:47.864Z,15.90
2022-11-02T01:52:04.972Z,16.88
2022-11-02T01:57:14.927Z,19.36
2022-11-02T02:08:36.324Z,16.99
2022-11-02T02:13:39.204Z,16.36
2022-11-02T02:18:51.994Z,15.88
2022-11-02T02:24:07.124Z,16.66
2022-11-02T02:29:15.023Z,19.43
2022-11-02T02:34:24.739Z,18.98
2022-11-02T02:39:33.565Z,17.61
2022-11-02T02:44:40.774Z,16.81
2022-11-02T02:49:51.408Z,16.24
2022-11-02T02:54:58.459Z,15.80
2022-11-02T03:00:01.579Z,16.59
2022-11-02T03:05:25.725Z,19.30
2022-11-02T03:10:34.841Z,18.91
2022-11-02T03:16:01.376Z,17.57
2022-11-02T03:21:20.352Z,16.77
2022-11-02T03:26:32.266Z,16.22
2022-11-02T03:31:54.948Z,15.80
2022-11-02T03:42:23.574Z,16.50
2022-11-02T03:47:31.190Z,19.26
2022-11-02T03:52:40.035Z,19.16
2022-11-02T03:57:49.616Z,17.64
2022-11-02T04:02:58.721Z,16.77
2022-11-02T04:08:21.009Z,16.15
2022-11-02T04:13:44.348Z,15.65
2022-11-02T04:19:06.118Z,15.23
2022-11-02T04:24:27.729Z,16.26
2022-11-02T04:29:30.632Z,19.06
2022-11-02T04:34:33.791Z,19.02
2022-11-02T04:39:37.291Z,17.45
2022-11-02T04:44:40.848Z,16.52
2022-11-02T04:49:50.650Z,15.91
2022-11-02T04:54:54.284Z,15.46
2022-11-02T04:59:57.251Z,15.08
2022-11-02T05:05:00.451Z,15.99
2022-11-02T05:10:04.157Z,18.87
2022-11-02T05:15:09.939Z,19.39
2022-11-02T05:20:13.704Z,17.78
2022-11-02T05:25:16.660Z,16.72
2022-11-02T05:30:19.566Z,16.05
2022-11-02T05:35:25.072Z,15.55
2022-11-02T05:40:32.143Z,16.36
2022-11-02T05:45:37.208Z,19.15
2022-11-02T05:50:41.351Z,19.25
2022-11-02T05:55:44.858Z,17.63
2022-11-02T06:00:50.016Z,16.71
2022-11-02T06:06:03.776Z,16.04
2022-11-02T06:11:12.483Z,15.50
2022-11-02T06:16:22.412Z,16.38
2022-11-02T06:21:26.837Z,19.22
2022-11-02T06:26:30.749Z,18.76
2022-11-02T06:31:34.094Z,17.29
2022-11-02T06:36:38.017Z,16.46
2022-11-02T06:41:42.929Z,15.88
2022-11-02T06:46:46.457Z,15.39
2022-11-02T06:51:53.653Z,16.27
2022-11-02T06:56:56.620Z,19.14
2022-11-02T07:02:00.090Z,19.19
2022-11-02T07:07:04.603Z,17.67
2022-11-02T07:12:07.823Z,16.75
2022-11-02T07:17:11.298Z,16.13
2022-11-02T07:22:14.796Z,15.66
2022-11-02T07:27:18.150Z,16.63
2022-11-02T07:32:21.544Z,19.46
2022-11-02T07:37:24.600Z,19.22
2022-11-02T07:42:28.245Z,17.70
2022-11-02T07:47:33.360Z,16.82
2022-11-02T07:52:36.914Z,16.26
2022-11-02T07:57:39.743Z,17.05
2022-11-02T08:02:42.725Z,19.82
2022-11-02T08:07:45.637Z,19.44
2022-11-02T08:12:49.539Z,18.08
2022-11-02T08:18:03.389Z,17.35
2022-11-02T08:23:07.846Z,16.86
2022-11-02T08:28:13.878Z,16.52
2022-11-02T08:33:18.767Z,17.51
2022-11-02T08:38:24.733Z,20.28
2022-11-02T08:43:27.796Z,19.53
2022-11-02T08:48:30.709Z,18.44
2022-11-02T08:53:33.595Z,17.84
2022-11-02T08:58:36.476Z,17.46
2022-11-02T09:03:39.445Z,17.17
2022-11-02T09:08:42.469Z,18.14
2022-11-02T09:13:45.643Z,20.10
2022-11-02T09:18:48.766Z,18.99
2022-11-02T09:23:51.698Z,18.32
2022-11-02T09:28:54.588Z,17.92
2022-11-02T09:33:57.524Z,17.63
2022-11-02T09:39:00.462Z,17.39
2022-11-02T09:44:22.180Z,17.31
2022-11-02T09:49:26.285Z,18.59
2022-11-02T09:54:40.480Z,20.75
2022-11-02T09:59:43.516Z,19.78
2022-11-02T10:05:20.146Z,19.14
2022-11-02T10:10:45.812Z,18.78
2022-11-02T10:15:53.723Z,18.62
2022-11-02T10:21:06.684Z,18.52
2022-11-02T10:26:19.363Z,18.45
2022-11-02T10:31:33.905Z,18.39
2022-11-02T10:36:55.785Z,18.40
2022-11-02T10:42:10.552Z,18.40
2022-11-02T10:47:18.654Z,18.47
2022-11-02T10:52:22.106Z,18.51
2022-11-02T10:57:25.940Z,18.49
2022-11-02T11:02:30.190Z,18.51
2022-11-02T11:07:35.036Z,18.55
2022-11-02T11:12:41.051Z,18.66
2022-11-02T11:23:25.700Z,18.79
2022-11-02T11:28:30.273Z,18.90
2022-11-02T11:33:41.517Z,18.96
2022-11-02T11:38:48.420Z,18.97
2022-11-02T11:43:52.928Z,19.08
2022-11-02T11:48:59.764Z,19.23
2022-11-02T11:54:24.309Z,19.24
2022-11-02T11:59:48.526Z,19.11
2022-11-02T12:05:01.967Z,18.99
2022-11-02T12:10:10.949Z,18.84
2022-11-02T12:15:44.287Z,18.70
2022-11-02T12:20:50.133Z,18.61
2022-11-02T12:26:04.929Z,18.59
2022-11-02T12:31:11.406Z,18.62
2022-11-02T12:36:33.020Z,18.66
2022-11-02T12:41:42.025Z,18.74
2022-11-02T12:47:04.913Z,18.81
2022-11-02T12:52:16.841Z,18.87
2022-11-02T12:57:23.805Z,18.92
2022-11-02T13:02:32.510Z,18.90
2022-11-02T13:07:43.453Z,18.86
2022-11-02T13:12:50.822Z,18.87
2022-11-02T13:17:58.493Z,18.90
2022-11-02T13:23:34.747Z,18.91
2022-11-02T13:28:52.834Z,18.90
2022-11-02T13:34:00.242Z,18.90
2022-11-02T13:39:05.996Z,18.87
2022-11-02T13:44:27.540Z,18.76
2022-11-02T13:49:37.382Z,18.68
2022-11-02T13:54:53.181Z,18.62
2022-11-02T13:59:59.763Z,18.60
2022-11-02T14:05:02.956Z,18.55
2022-11-02T14:10:16.415Z,18.48
2022-11-02T14:15:19.301Z,18.45
2022-11-02T14:20:46.826Z,18.40
2022-11-02T14:25:54.473Z,18.37
2022-11-02T14:31:03.417Z,18.34
2022-11-02T14:36:18.691Z,18.32
2022-11-02T14:41:39.933Z,18.29
2022-11-02T14:46:48.817Z,18.21
2022-11-02T14:52:15.028Z,18.16
2022-11-02T14:57:26.149Z,18.10
2022-11-02T15:02:32.600Z,18.05
2022-11-02T15:07:41.784Z,17.95
2022-11-02T15:12:46.978Z,17.86
2022-11-02T15:17:59.304Z,17.77
2022-11-02T15:23:30.009Z,17.68
2022-11-02T15:28:34.984Z,17.57
2022-11-02T15:33:42.734Z,17.48
2022-11-02T15:38:51.404Z,17.40
2022-11-02T15:44:08.051Z,17.35
2022-11-02T15:49:29.590Z,17.33
2022-11-02T15:54:49.616Z,17.27
2022-11-02T16:00:14.082Z,17.22
2022-11-02T16:05:26.802Z,17.17
2022-11-02T16:10:31.178Z,17.12
2022-11-02T16:15:34.296Z,17.08
2022-11-02T16:20:40.000Z,17.05
2022-11-02T16:25:46.980Z,17.00
2022-11-02T16:31:21.548Z,16.94
2022-11-02T16:36:27.308Z,16.85
2022-11-02T16:41:32.793Z,16.77
2022-11-02T16:46:56.682Z,16.73
2022-11-02T16:52:06.866Z,16.64
2022-11-02T16:57:12.601Z,16.58
2022-11-02T17:02:16.085Z,16.51
2022-11-02T17:07:35.884Z,16.43
2022-11-02T17:12:43.627Z,16.37
2022-11-02T17:17:47.022Z,16.30
2022-11-02T17:23:04.036Z,16.24
2022-11-02T17:28:34.556Z,16.17
2022-11-02T17:33:37.634Z,16.09
2022-11-02T17:38:40.728Z,16.05
2022-11-02T17:43:45.662Z,16.01
2022-11-02T17:48:48.656Z,15.97
2022-11-02T17:53:51.966Z,15.95
2022-11-02T17:58:56.539Z,15.93
2022-11-02T18:03:59.448Z,15.91
2022-11-02T18:09:11.495Z,15.90
2022-11-02T18:14:16.994Z,15.89
2022-11-02T18:19:20.193Z,15.87
2022-11-02T18:24:23.084Z,15.85
2022-11-02T18:29:25.976Z,15.83
2022-11-02T18:34:29.274Z,15.80
2022-11-02T18:39:32.533Z,15.76
2022-11-02T18:44:35.842Z,15.74
2022-11-02T18:49:38.902Z,15.71
2022-11-02T18:54:41.793Z,15.70
2022-11-02T18:59:45.007Z,15.67
2022-11-02T19:04:47.883Z,15.63
2022-11-02T19:09:50.766Z,15.60
2022-11-02T19:14:54.436Z,15.60
2022-11-02T19:19:57.486Z,15.58
2022-11-02T19:25:01.281Z,15.55
2022-11-02T19:30:05.197Z,15.49
2022-11-02T19:35:08.459Z,15.45
2022-11-02T19:40:11.889Z,16.52
2022-11-02T19:45:17.949Z,19.55
2022-11-02T19:50:20.962Z,19.29
2022-11-02T19:55:28.690Z,18.07
2022-11-02T20:00:36.046Z,17.44
2022-11-02T20:05:40.390Z,17.00
2022-11-02T20:10:43.476Z,16.63
2022-11-02T20:15:56.109Z,16.32
2022-11-02T20:21:11.429Z,16.05
2022-11-02T20:26:47.003Z,15.80
2022-11-02T20:31:52.665Z,15.61
2022-11-02T20:37:00.718Z,15.45
2022-11-02T20:42:04.371Z,15.33
2022-11-02T20:47:11.204Z,15.22
2022-11-02T20:52:19.359Z,15.13
2022-11-02T20:57:24.572Z,15.07
2022-11-02T21:02:35.101Z,15.02
2022-11-02T21:07:38.131Z,14.94
2022-11-02T21:12:59.758Z,14.90
2022-11-02T21:18:02.865Z,14.84
2022-11-02T21:23:06.592Z,14.79
2022-11-02T21:28:09.727Z,14.76
2022-11-02T21:33:12.662Z,14.73
2022-11-02T21:38:15.657Z,14.68
2022-11-02T21:43:19.134Z,14.64
2022-11-02T21:48:23.157Z,15.85
2022-11-02T21:53:26.296Z,18.89
2022-11-02T21:58:29.707Z,18.80
2022-11-02T22:03:32.636Z,17.46
2022-11-02T22:08:41.295Z,16.71
2022-11-02T22:13:44.533Z,16.16
2022-11-02T22:19:01.122Z,15.74
2022-11-02T22:24:05.576Z,15.42
2022-11-02T22:29:09.116Z,15.12
2022-11-02T22:34:14.132Z,14.83
2022-11-02T22:39:17.118Z,14.64
2022-11-02T22:44:22.811Z,14.51
2022-11-02T22:49:25.653Z,14.36
2022-11-02T22:54:28.648Z,14.29
2022-11-02T22:59:31.575Z,14.20
2022-11-02T23:04:34.471Z,14.11
2022-11-02T23:09:37.452Z,15.29
2022-11-02T23:14:40.353Z,18.41
2022-11-02T23:19:44.379Z,18.92
2022-11-02T23:25:08.679Z,17.42
2022-11-02T23:30:30.763Z,16.47
2022-11-02T23:35:52.654Z,15.83
2022-11-02T23:40:55.816Z,15.31
2022-11-02T23:45:58.772Z,14.93
2022-11-02T23:51:20.393Z,14.60
2022-11-02T23:56:41.999Z,14.31
